Time;durP1;ratioP1;P1;durP2;ratioP2;P2;SDS_P1;SDS_P2;PMS_P1;PMS_P2;Temp;Humidity;BMP_temperature;BMP_pressure;BME280_temperature;BME280_humidity;BME280_pressure;Samples;Min_cycle;Max_cycle;Signal;HPM_P1;HPM_P2
2023/10/17 08:09:48;;;;;;;0.52;0.52;;;;;;;;;;7397298;19;20333;-92
2023/10/17 08:12:22;;;;;;;0.52;0.52;;;;;;;;;;7396254;19;20336;-90
2023/10/17 08:14:58;;;;;;;0.90;0.90;;;;;;;;;;7394043;19;20484;-90
2023/10/17 08:17:27;;;;;;;0.75;0.75;;;;;;;;;;7391316;19;20332;-91
2023/10/17 08:20:02;;;;;;;1.40;1.30;;;;;;;;;;7394195;19;20352;-91
2023/10/17 08:22:54;;;;;;;0.65;0.65;;;;;;;;;;7390908;19;20355;-92
2023/10/17 08:25:24;;;;;;;0.60;0.60;;;;;;;;;;7392131;19;20352;-91
2023/10/17 08:27:54;;;;;;;0.93;0.93;;;;;;;;;;7390609;19;20749;-92
2023/10/17 08:30:23;;;;;;;0.73;0.73;;;;;;;;;;7392389;19;20365;-90
2023/10/17 08:35:40;;;;;;;1.23;1.20;;;;;;;;;;7389638;19;20333;-91
2023/10/17 08:38:11;;;;;;;1.00;0.90;;;;;;;;;;7389313;19;20359;-89
2023/10/17 08:43:20;;;;;;;0.73;0.73;;;;;;;;;;7393194;19;20461;-91
2023/10/17 08:46:09;;;;;;;0.60;0.60;;;;;;;;;;7391574;19;20357;-90
2023/10/17 08:48:43;;;;;;;1.23;1.17;;;;;;;;;;7392325;19;20355;-92
2023/10/17 08:51:32;;;;;;;1.08;1.08;;;;;;;;;;7391006;19;20351;-92
2023/10/17 08:54:00;;;;;;;1.15;1.00;;;;;;;;;;7389114;19;20359;-93
2023/10/17 08:56:28;;;;;;;1.52;1.45;;;;;;;;;;7390129;19;20360;-91
2023/10/17 08:59:03;;;;;;;1.25;1.08;;;;;;;;;;7389460;19;20884;-91
2023/10/17 09:01:50;;;;;;;1.17;1.17;;;;;;;;;;7392568;19;20375;-92
2023/10/17 09:04:33;;;;;;;1.50;1.40;;;;;;;;;;7388800;19;20943;-92
2023/10/17 09:07:31;;;;;;;1.45;1.35;;;;;;;;;;7389522;19;20375;-92
2023/10/17 09:10:44;;;;;;;1.42;1.05;;;;;;;;;;7392118;19;20876;-91
2023/10/17 09:14:14;;;;;;;1.05;1.05;;;;;;;;;;7389779;19;20374;-91
2023/10/17 09:17:16;;;;;;;0.88;0.88;;;;;;;;;;7390636;19;20365;-91
2023/10/17 09:20:02;;;;;;;0.70;0.70;;;;;;;;;;7389074;19;20389;-92
2023/10/17 09:25:35;;;;;;;0.60;0.60;;;;;;;;;;7387412;19;21071;-88
2023/10/17 09:28:02;;;;;;;0.80;0.70;;;;;;;;;;7387323;19;20408;-89
2023/10/17 09:30:30;;;;;;;1.40;1.08;;;;;;;;;;7394542;19;20343;-89
2023/10/17 09:32:58;;;;;;;0.68;0.68;;;;;;;;;;7398405;19;20397;-89
2023/10/17 09:35:26;;;;;;;0.77;0.77;;;;;;;;;;7397902;19;20361;-89
2023/10/17 09:37:56;;;;;;;0.90;0.90;;;;;;;;;;7395740;19;20353;-87
2023/10/17 09:40:29;;;;;;;0.63;0.63;;;;;;;;;;7394401;19;20421;-86
2023/10/17 09:42:58;;;;;;;1.67;1.58;;;;;;;;;;7391149;19;20461;-88
2023/10/17 09:45:33;;;;;;;0.73;0.73;;;;;;;;;;7396231;19;20709;-85
2023/10/17 09:48:07;;;;;;;2.10;1.50;;;;;;;;;;7395407;19;20456;-87
2023/10/17 09:50:42;;;;;;;2.50;1.52;;;;;;;;;;7395450;19;20353;-87
2023/10/17 09:53:16;;;;;;;1.23;1.13;;;;;;;;;;7396087;19;20369;-88
2023/10/17 09:56:10;;;;;;;1.20;1.10;;;;;;;;;;7396309;19;20340;-87
2023/10/17 09:59:18;;;;;;;1.58;1.52;;;;;;;;;;7396592;19;20356;-86
2023/10/17 10:01:49;;;;;;;1.25;1.15;;;;;;;;;;7392970;19;20357;-87
2023/10/17 10:04:19;;;;;;;1.33;1.23;;;;;;;;;;7398158;19;20900;-85
2023/10/17 10:06:47;;;;;;;1.57;1.03;;;;;;;;;;7393549;19;20728;-86
2023/10/17 10:09:19;;;;;;;0.93;0.93;;;;;;;;;;7395584;19;20352;-87
2023/10/17 10:11:49;;;;;;;1.40;1.20;;;;;;;;;;7394965;19;20357;-86
2023/10/17 10:14:49;;;;;;;2.40;1.17;;;;;;;;;;7394842;19;20353;-87
2023/10/17 10:18:06;;;;;;;0.93;0.93;;;;;;;;;;7393840;19;20901;-86
2023/10/17 10:20:53;;;;;;;1.20;1.13;;;;;;;;;;7395477;19;20691;-89
2023/10/17 10:23:29;;;;;;;0.75;0.75;;;;;;;;;;7387428;19;20324;-90
2023/10/17 10:26:19;;;;;;;0.63;0.63;;;;;;;;;;7390746;19;20351;-87
2023/10/17 10:28:51;;;;;;;1.00;1.00;;;;;;;;;;7386316;19;20974;-89
2023/10/17 10:31:28;;;;;;;0.50;0.50;;;;;;;;;;7394745;19;20178;-87
2023/10/17 10:33:56;;;;;;;0.93;0.93;;;;;;;;;;7396217;19;20145;-87
2023/10/17 10:36:23;;;;;;;0.50;0.50;;;;;;;;;;7401178;19;20133;-88
2023/10/17 10:38:54;;;;;;;0.40;0.40;;;;;;;;;;7420353;19;20155;-88
2023/10/17 10:41:22;;;;;;;0.60;0.60;;;;;;;;;;7424045;19;20153;-88
2023/10/17 10:43:57;;;;;;;0.30;0.30;;;;;;;;;;7417270;19;20141;-88
2023/10/17 10:46:24;;;;;;;0.80;0.80;;;;;;;;;;7420385;19;20144;-88
2023/10/17 10:48:53;;;;;;;0.53;0.53;;;;;;;;;;7425183;19;20181;-88
2023/10/17 10:51:27;;;;;;;0.70;0.70;;;;;;;;;;7425173;19;20157;-88
2023/10/17 10:53:54;;;;;;;1.87;1.50;;;;;;;;;;7421835;19;20133;-88
2023/10/17 10:56:22;;;;;;;0.33;0.33;;;;;;;;;;7423972;19;20148;-87
2023/10/17 10:58:55;;;;;;;0.83;0.83;;;;;;;;;;7416562;19;20141;-89
2023/10/17 11:01:23;;;;;;;0.50;0.50;;;;;;;;;;7428954;19;20157;-90
2023/10/17 11:03:51;;;;;;;0.60;0.60;;;;;;;;;;7428486;19;20133;-89
2023/10/17 11:06:27;;;;;;;1.70;1.47;;;;;;;;;;7432959;19;20141;-90
2023/10/17 11:08:54;;;;;;;0.60;0.60;;;;;;;;;;7433812;19;20148;-89
2023/10/17 11:11:22;;;;;;;0.73;0.60;;;;;;;;;;7433730;19;20178;-89
2023/10/17 11:13:54;;;;;;;0.50;0.50;;;;;;;;;;7433383;19;20148;-89
2023/10/17 11:16:24;;;;;;;0.77;0.77;;;;;;;;;;7420866;19;20620;-89
2023/10/17 11:18:53;;;;;;;0.50;0.50;;;;;;;;;;7403328;19;20137;-88
2023/10/17 11:21:21;;;;;;;0.50;0.50;;;;;;;;;;7402902;19;20176;-88
2023/10/17 11:23:53;;;;;;;3.43;0.97;;;;;;;;;;7405632;19;20156;-90
2023/10/17 11:26:26;;;;;;;0.50;0.50;;;;;;;;;;7399433;19;20177;-89
2023/10/17 11:28:55;;;;;;;0.70;0.70;;;;;;;;;;7401129;19;20554;-89
2023/10/17 11:31:24;;;;;;;0.97;0.97;;;;;;;;;;7395506;19;20169;-87
2023/10/17 11:33:58;;;;;;;0.97;0.97;;;;;;;;;;7390278;19;20162;-88
2023/10/17 11:36:35;;;;;;;1.13;1.13;;;;;;;;;;7397341;19;20133;-88
2023/10/17 11:39:07;;;;;;;0.60;0.60;;;;;;;;;;7401264;19;20144;-87
2023/10/17 11:41:52;;;;;;;0.50;0.50;;;;;;;;;;7397937;19;20157;-88
2023/10/17 11:44:24;;;;;;;0.67;0.67;;;;;;;;;;7399770;19;20125;-87
2023/10/17 11:47:03;;;;;;;0.70;0.70;;;;;;;;;;7403588;19;20490;-90
2023/10/17 11:49:32;;;;;;;1.65;1.52;;;;;;;;;;7404972;19;20404;-89
2023/10/17 11:51:59;;;;;;;1.25;1.10;;;;;;;;;;7423687;19;20373;-89
2023/10/17 11:54:31;;;;;;;2.00;1.80;;;;;;;;;;7419128;19;20345;-89
2023/10/17 11:57:14;;;;;;;0.95;0.95;;;;;;;;;;7409404;19;20344;-88
2023/10/17 12:00:21;;;;;;;1.67;1.58;;;;;;;;;;7400267;19;20385;-88
2023/10/17 12:02:48;;;;;;;1.70;1.60;;;;;;;;;;7398924;19;20356;-88
2023/10/17 12:05:19;;;;;;;1.25;1.20;;;;;;;;;;7397277;19;20344;-88
2023/10/17 12:07:49;;;;;;;2.13;1.20;;;;;;;;;;7398457;19;20424;-88
2023/10/17 12:10:17;;;;;;;1.60;1.50;;;;;;;;;;7397991;19;20340;-86
2023/10/17 12:12:43;;;;;;;1.75;1.50;;;;;;;;;;7398335;19;20360;-86
2023/10/17 12:15:13;;;;;;;1.45;1.30;;;;;;;;;;7390767;19;20345;-87
2023/10/17 12:17:41;;;;;;;1.40;1.30;;;;;;;;;;7395894;19;20708;-87
2023/10/17 12:24:11;;;;;;;0.70;0.70;;;;;;;;;;7393580;19;20374;-87
2023/10/17 12:26:42;;;;;;;1.48;1.38;;;;;;;;;;7393576;19;20357;-88
2023/10/17 12:29:11;;;;;;;1.48;1.38;;;;;;;;;;7394623;19;20341;-88
2023/10/17 12:31:39;;;;;;;1.40;1.30;;;;;;;;;;7395429;19;20352;-88
2023/10/17 12:34:10;;;;;;;1.17;1.17;;;;;;;;;;7397587;19;20348;-89
2023/10/17 12:36:37;;;;;;;1.67;1.50;;;;;;;;;;7392787;19;20381;-89
2023/10/17 12:39:06;;;;;;;1.30;1.20;;;;;;;;;;7396989;19;20374;-88
2023/10/17 12:41:34;;;;;;;1.25;1.25;;;;;;;;;;7397413;19;20449;-88
2023/10/17 12:44:01;;;;;;;2.15;1.63;;;;;;;;;;7398031;19;20348;-88
2023/10/17 12:46:28;;;;;;;2.10;1.30;;;;;;;;;;7397865;19;20694;-88
2023/10/17 12:48:55;;;;;;;1.40;1.30;;;;;;;;;;7394796;19;21056;-89
2023/10/17 12:51:49;;;;;;;1.70;1.60;;;;;;;;;;7397068;19;20378;-89
2023/10/17 12:54:47;;;;;;;1.13;1.02;;;;;;;;;;7397359;19;21098;-90
2023/10/17 12:57:48;;;;;;;1.43;1.33;;;;;;;;;;7396691;19;20376;-89
2023/10/17 13:00:35;;;;;;;1.45;1.35;;;;;;;;;;7391799;19;20379;-89
2023/10/17 13:03:16;;;;;;;1.55;1.48;;;;;;;;;;7393341;19;20341;-88
2023/10/17 13:05:46;;;;;;;1.80;1.70;;;;;;;;;;7392101;19;20366;-89
2023/10/17 13:08:14;;;;;;;1.50;1.40;;;;;;;;;;7391960;19;20357;-89
2023/10/17 13:10:42;;;;;;;1.67;1.57;;;;;;;;;;7408201;19;20357;-87
2023/10/17 13:13:11;;;;;;;0.93;0.93;;;;;;;;;;7397735;19;20427;-87
2023/10/17 13:15:38;;;;;;;1.35;1.30;;;;;;;;;;7400299;19;20413;-89
2023/10/17 13:18:07;;;;;;;3.60;1.48;;;;;;;;;;7397966;19;20356;-87
2023/10/17 13:20:34;;;;;;;1.67;1.58;;;;;;;;;;7394749;19;20721;-87
2023/10/17 13:23:25;;;;;;;1.58;1.48;;;;;;;;;;7385610;19;20348;-87
2023/10/17 13:25:53;;;;;;;1.97;1.67;;;;;;;;;;7388352;19;20372;-87
2023/10/17 13:28:20;;;;;;;1.33;1.23;;;;;;;;;;7392135;19;20337;-88
2023/10/17 13:30:46;;;;;;;1.70;1.60;;;;;;;;;;7388864;19;20428;-89
2023/10/17 13:33:13;;;;;;;1.95;1.80;;;;;;;;;;7392517;19;20344;-87
2023/10/17 13:35:41;;;;;;;2.00;1.80;;;;;;;;;;7392774;19;20345;-87
2023/10/17 13:38:09;;;;;;;1.42;1.33;;;;;;;;;;7389217;19;21632;-88
2023/10/17 13:40:36;;;;;;;1.17;1.17;;;;;;;;;;7388484;19;21024;-89
2023/10/17 13:43:04;;;;;;;3.35;1.58;;;;;;;;;;7392082;19;20703;-88
2023/10/17 13:45:40;;;;;;;0.67;0.67;;;;;;;;;;7390029;19;20328;-89
2023/10/17 13:48:08;;;;;;;1.50;1.40;;;;;;;;;;7390774;19;20671;-89
2023/10/17 13:50:36;;;;;;;1.60;1.50;;;;;;;;;;7389625;19;20341;-89
2023/10/17 13:53:06;;;;;;;1.50;1.30;;;;;;;;;;7394199;19;20349;-90
2023/10/17 13:55:41;;;;;;;1.30;1.00;;;;;;;;;;7393892;19;20931;-87
2023/10/17 13:58:09;;;;;;;1.35;1.33;;;;;;;;;;7391594;19;20364;-87
2023/10/17 14:00:43;;;;;;;1.48;1.38;;;;;;;;;;7389447;19;20337;-89
2023/10/17 14:03:13;;;;;;;1.27;1.20;;;;;;;;;;7408404;19;20345;-86
2023/10/17 14:05:47;;;;;;;1.10;1.00;;;;;;;;;;7392007;19;20373;-86
2023/10/17 14:08:15;;;;;;;1.27;1.20;;;;;;;;;;7389608;19;20408;-86
2023/10/17 14:10:43;;;;;;;1.20;1.10;;;;;;;;;;7387062;19;20374;-87
2023/10/17 14:13:12;;;;;;;1.30;1.20;;;;;;;;;;7387016;19;20992;-88
2023/10/17 14:15:41;;;;;;;1.10;1.10;;;;;;;;;;7390071;19;20352;-87
2023/10/17 14:18:18;;;;;;;1.20;1.10;;;;;;;;;;7389030;19;20377;-87
2023/10/17 14:23:32;;;;;;;0.90;0.90;;;;;;;;;;7390717;19;20356;-88
2023/10/17 14:26:09;;;;;;;1.05;0.95;;;;;;;;;;7387842;19;20341;-85
2023/10/17 14:28:37;;;;;;;1.17;1.08;;;;;;;;;;7386941;19;20348;-88
2023/10/17 14:31:05;;;;;;;0.80;0.80;;;;;;;;;;7387455;19;20361;-88
2023/10/17 14:33:33;;;;;;;1.45;1.10;;;;;;;;;;7386127;19;20440;-89
2023/10/17 14:36:09;;;;;;;1.10;1.10;;;;;;;;;;7397774;19;20324;-87
2023/10/17 14:38:35;;;;;;;0.70;0.70;;;;;;;;;;7396970;19;20351;-86
2023/10/17 14:41:09;;;;;;;0.85;0.85;;;;;;;;;;7397141;19;20371;-87
2023/10/17 14:43:36;;;;;;;0.98;0.98;;;;;;;;;;7398853;19;20362;-89
2023/10/17 14:46:03;;;;;;;0.77;0.77;;;;;;;;;;7396801;19;20365;-87
2023/10/17 14:48:36;;;;;;;1.20;1.20;;;;;;;;;;7392916;19;20336;-87
2023/10/17 14:51:03;;;;;;;1.40;1.10;;;;;;;;;;7393048;19;20373;-87
2023/10/17 14:53:30;;;;;;;1.27;1.17;;;;;;;;;;7398156;19;20691;-87
2023/10/17 14:56:16;;;;;;;1.35;1.25;;;;;;;;;;7397755;19;20361;-88
2023/10/17 14:58:49;;;;;;;1.48;1.30;;;;;;;;;;7401143;19;20345;-87
2023/10/17 15:01:17;;;;;;;1.50;0.87;;;;;;;;;;7398151;19;20343;-87
2023/10/17 15:04:25;;;;;;;1.33;0.90;;;;;;;;;;7394577;19;21027;-87
2023/10/17 15:07:26;;;;;;;1.17;0.98;;;;;;;;;;7393113;19;20353;-87
2023/10/17 15:10:16;;;;;;;0.90;0.90;;;;;;;;;;7390946;19;20364;-87
2023/10/17 15:13:33;;;;;;;1.05;0.90;;;;;;;;;;7390208;19;20353;-87
2023/10/17 15:16:02;;;;;;;0.68;0.68;;;;;;;;;;7395519;19;20348;-87
2023/10/17 15:18:32;;;;;;;0.93;0.93;;;;;;;;;;7392928;19;20348;-88
2023/10/17 15:21:09;;;;;;;0.88;0.88;;;;;;;;;;7396678;19;20945;-87
2023/10/17 15:23:36;;;;;;;2.65;1.05;;;;;;;;;;7395040;19;20348;-86
2023/10/17 15:26:04;;;;;;;1.42;1.33;;;;;;;;;;7396460;19;20910;-87
2023/10/17 15:28:30;;;;;;;4.15;2.35;;;;;;;;;;7394517;19;20901;-89
2023/10/17 15:31:04;;;;;;;1.35;1.25;;;;;;;;;;7392119;19;20408;-87
2023/10/17 15:33:32;;;;;;;1.20;0.93;;;;;;;;;;7394615;19;20355;-87
2023/10/17 15:35:59;;;;;;;1.10;1.10;;;;;;;;;;7389273;19;20328;-87
2023/10/17 15:38:26;;;;;;;0.70;0.70;;;;;;;;;;7397665;19;20884;-89
2023/10/17 15:40:53;;;;;;;0.68;0.68;;;;;;;;;;7416617;19;20344;-90
2023/10/17 15:43:20;;;;;;;1.00;0.90;;;;;;;;;;7427428;19;20345;-90
2023/10/17 15:45:54;;;;;;;2.10;1.50;;;;;;;;;;7429879;19;20349;-89
2023/10/17 15:48:24;;;;;;;0.68;0.68;;;;;;;;;;7416808;19;20381;-88
2023/10/17 15:51:00;;;;;;;1.90;1.02;;;;;;;;;;7399349;19;20348;-89
2023/10/17 15:53:29;;;;;;;1.10;1.10;;;;;;;;;;7398288;19;20424;-89
2023/10/17 15:55:58;;;;;;;1.60;1.10;;;;;;;;;;7389042;19;20373;-89
2023/10/17 15:58:27;;;;;;;0.70;0.70;;;;;;;;;;7396771;19;20348;-87
2023/10/17 16:00:55;;;;;;;1.10;1.10;;;;;;;;;;7391702;19;20352;-87
2023/10/17 16:03:23;;;;;;;1.00;0.95;;;;;;;;;;7396095;19;20367;-86
2023/10/17 16:05:51;;;;;;;1.08;1.08;;;;;;;;;;7393869;19;20356;-85
2023/10/17 16:08:21;;;;;;;1.75;1.65;;;;;;;;;;7388602;19;20340;-86
2023/10/17 16:10:55;;;;;;;0.70;0.70;;;;;;;;;;7395141;19;20415;-86
2023/10/17 16:13:22;;;;;;;0.85;0.82;;;;;;;;;;7396946;19;20791;-87
2023/10/17 16:15:56;;;;;;;1.40;1.30;;;;;;;;;;7397893;19;20324;-87
2023/10/17 16:18:23;;;;;;;0.95;0.95;;;;;;;;;;7396606;19;20357;-89
2023/10/17 16:20:50;;;;;;;0.80;0.80;;;;;;;;;;7395708;19;20347;-87
2023/10/17 16:23:18;;;;;;;1.02;1.02;;;;;;;;;;7399540;19;20454;-88
2023/10/17 16:25:49;;;;;;;1.17;1.17;;;;;;;;;;7399746;19;20364;-88
2023/10/17 16:28:16;;;;;;;1.40;1.30;;;;;;;;;;7397299;19;20420;-87
2023/10/17 16:30:44;;;;;;;1.40;1.08;;;;;;;;;;7394233;19;20361;-87
2023/10/17 16:33:12;;;;;;;0.95;0.95;;;;;;;;;;7391608;19;20368;-86
2023/10/17 16:35:42;;;;;;;0.90;0.90;;;;;;;;;;7392672;19;20369;-86
2023/10/17 16:38:14;;;;;;;1.20;1.13;;;;;;;;;;7396449;19;20367;-87
2023/10/17 16:40:43;;;;;;;1.48;1.15;;;;;;;;;;7394263;19;20361;-87
2023/10/17 16:43:11;;;;;;;0.77;0.77;;;;;;;;;;7394292;19;20320;-88
2023/10/17 16:45:37;;;;;;;0.90;0.90;;;;;;;;;;7391113;19;20344;-87
2023/10/17 16:48:05;;;;;;;1.00;1.00;;;;;;;;;;7396429;19;20357;-89
2023/10/17 16:50:32;;;;;;;1.30;1.20;;;;;;;;;;7397615;19;20360;-87
2023/10/17 16:52:59;;;;;;;1.00;1.00;;;;;;;;;;7396915;19;20369;-87
2023/10/17 16:55:26;;;;;;;0.93;0.93;;;;;;;;;;7396917;19;20358;-87
2023/10/17 16:57:53;;;;;;;1.20;1.20;;;;;;;;;;7392743;19;21139;-87
2023/10/17 17:00:20;;;;;;;1.30;1.23;;;;;;;;;;7396037;19;20365;-87
2023/10/17 17:02:47;;;;;;;2.08;1.20;;;;;;;;;;7394013;19;20337;-87
2023/10/17 17:05:14;;;;;;;0.77;0.77;;;;;;;;;;7395902;19;20853;-86
2023/10/17 17:07:41;;;;;;;2.20;1.67;;;;;;;;;;7390040;19;20392;-88
2023/10/17 17:10:13;;;;;;;1.33;1.23;;;;;;;;;;7390769;19;20672;-87
2023/10/17 17:12:42;;;;;;;1.23;1.17;;;;;;;;;;7393482;19;20444;-87
2023/10/17 17:15:11;;;;;;;1.57;1.47;;;;;;;;;;7392768;19;20389;-86
2023/10/17 17:17:39;;;;;;;0.82;0.82;;;;;;;;;;7392752;19;20377;-87
2023/10/17 17:20:11;;;;;;;1.40;1.30;;;;;;;;;;7390237;19;20349;-88
2023/10/17 17:22:38;;;;;;;1.43;1.03;;;;;;;;;;7388930;19;20370;-87
2023/10/17 17:25:05;;;;;;;1.48;1.38;;;;;;;;;;7393238;19;20348;-87
2023/10/17 17:27:35;;;;;;;1.63;1.52;;;;;;;;;;7390549;19;20369;-87
2023/10/17 17:30:07;;;;;;;1.67;1.58;;;;;;;;;;7389985;19;20378;-88
2023/10/17 17:32:37;;;;;;;1.42;1.33;;;;;;;;;;7392591;19;20358;-88
2023/10/17 17:35:06;;;;;;;1.88;1.73;;;;;;;;;;7416682;19;20352;-86
2023/10/17 17:37:33;;;;;;;1.73;1.63;;;;;;;;;;7420133;19;20447;-90
2023/10/17 17:40:00;;;;;;;1.33;1.25;;;;;;;;;;7417353;19;20345;-88
2023/10/17 17:42:27;;;;;;;1.50;1.40;;;;;;;;;;7420341;19;20369;-91
